Airfield :
LOGIN :

Register | Disclaimer

   EN    FR    IT 

 










Legend :    VFR   Marginal VFR   IFR   Intensive IFR   Very Intensive IFR
Visi :
Ceiling :
>= 8 km
>= 3000ft
5 to 8 km
1000 to 3000 ft
1500m to 5 km
500 to 1000 ft
800 to 1500m
200 to 500 ft
< 800m
< 200 ft
Symbols :   Thunderstorms  Fog  Heavy snow  Heavy precipitations  Wind > 20 kt
SIGMETs :     Misc.  Thunderstorms  Icing  Turbulence  Mountain Waves  Volcanic Ashes






- Airport Elevation : 36 ft
- IATA code : GJL


DAAV - Jijel Ferhat Abbas

CURRENT METAR :
  • 070400Z 17003KT 9999 FEW040 11/08 Q1014

EXPIRED METARs :
  • 070300Z 20002KT CAVOK 12/09 Q1014
  • 070200Z 19003KT CAVOK 12/09 Q1014
  • 070100Z 20003KT CAVOK 11/09 Q1015

TAF TAF DAAV
Valid from the 07 at 00:00 until the 08 at 00:00 UTC


062300Z 0700/0724 17009KT 6000 FEW033 SCT100
PROB40
TEMPO 0700/0712 4000 RA FEW026CB
BECMG 0710/0712 31012KT
PROB30
TEMPO 0714/0718 3000 HZ



MET'MAP, your aeronautical weather chart ! - Copyright ORBIFLY December 2007 - Disclaimer

ORBIFLY MET'MAP TEAM :

Programming & Development : Alexandra Zaïnal
Original concept : Baudouin d'Aumeries
Technical & hardware support : Manuel Goepfert
Assistance : Marc-Olivier Méhu




SOURCES & CREDITS :

   NOAA